sensor_id;sensor_type;location;lat;lon;timestamp;pressure;altitude;pressure_sealevel;temperature;humidity
3664;BME280;1848;51.042;7.066;2022-09-13T00:00:57;99813.84;;;17.02;84.13
3664;BME280;1848;51.042;7.066;2022-09-13T00:03:25;99817.19;;;17.10;84.76
3664;BME280;1848;51.042;7.066;2022-09-13T00:05:52;99753.34;;;16.69;85.82
3664;BME280;1848;51.042;7.066;2022-09-13T00:08:18;99801.41;;;17.01;87.28
3664;BME280;1848;51.042;7.066;2022-09-13T00:10:45;99803.78;;;16.98;86.16
3664;BME280;1848;51.042;7.066;2022-09-13T00:13:13;99814.81;;;16.96;86.06
3664;BME280;1848;51.042;7.066;2022-09-13T00:15:44;99820.22;;;16.96;86.33
3664;BME280;1848;51.042;7.066;2022-09-13T00:18:11;99818.00;;;16.93;84.00
3664;BME280;1848;51.042;7.066;2022-09-13T00:20:38;99818.84;;;16.94;85.78
3664;BME280;1848;51.042;7.066;2022-09-13T00:23:05;99748.50;;;16.55;84.88
3664;BME280;1848;51.042;7.066;2022-09-13T00:25:31;99797.16;;;16.88;85.95
3664;BME280;1848;51.042;7.066;2022-09-13T00:27:57;99796.56;;;16.86;85.70
3664;BME280;1848;51.042;7.066;2022-09-13T00:30:24;99790.00;;;16.82;86.98
3664;BME280;1848;51.042;7.066;2022-09-13T00:32:50;99771.00;;;16.77;86.83
3664;BME280;1848;51.042;7.066;2022-09-13T00:35:16;99765.84;;;16.76;87.72
3664;BME280;1848;51.042;7.066;2022-09-13T00:37:43;99758.00;;;16.74;88.20
3664;BME280;1848;51.042;7.066;2022-09-13T00:40:09;99765.03;;;16.75;88.25
3664;BME280;1848;51.042;7.066;2022-09-13T00:42:36;99763.63;;;16.73;87.16
3664;BME280;1848;51.042;7.066;2022-09-13T00:47:40;99776.97;;;16.79;87.64
3664;BME280;1848;51.042;7.066;2022-09-13T00:52:39;99786.72;;;16.80;86.02
3664;BME280;1848;51.042;7.066;2022-09-13T00:55:19;99787.28;;;16.82;87.50
3664;BME280;1848;51.042;7.066;2022-09-13T00:57:46;99777.28;;;16.83;85.67
3664;BME280;1848;51.042;7.066;2022-09-13T01:00:17;99740.63;;;16.53;87.09
3664;BME280;1848;51.042;7.066;2022-09-13T01:02:57;99784.72;;;16.87;87.39
3664;BME280;1848;51.042;7.066;2022-09-13T01:05:29;99779.06;;;16.89;87.97
3664;BME280;1848;51.042;7.066;2022-09-13T01:07:58;99789.38;;;16.92;88.28
3664;BME280;1848;51.042;7.066;2022-09-13T01:10:25;99783.97;;;16.92;87.15
3664;BME280;1848;51.042;7.066;2022-09-13T01:13:03;99788.28;;;16.93;87.88
3664;BME280;1848;51.042;7.066;2022-09-13T01:15:38;99700.63;;;16.33;87.32
3664;BME280;1848;51.042;7.066;2022-09-13T01:18:04;99788.78;;;16.90;88.08
3664;BME280;1848;51.042;7.066;2022-09-13T01:23:24;99788.09;;;16.83;86.79
3664;BME280;1848;51.042;7.066;2022-09-13T01:45:20;99773.06;;;16.70;87.95
3664;BME280;1848;51.042;7.066;2022-09-13T01:48:36;99781.38;;;16.68;87.46
3664;BME280;1848;51.042;7.066;2022-09-13T01:50:46;99780.81;;;16.66;87.47
3664;BME280;1848;51.042;7.066;2022-09-13T01:56:21;99773.69;;;16.60;88.23
3664;BME280;1848;51.042;7.066;2022-09-13T01:59:00;99769.94;;;16.61;88.42
3664;BME280;1848;51.042;7.066;2022-09-13T02:01:41;99679.56;;;16.01;88.79
3664;BME280;1848;51.042;7.066;2022-09-13T02:04:14;99767.72;;;16.58;88.33
3664;BME280;1848;51.042;7.066;2022-09-13T02:06:48;99774.41;;;16.56;89.86
3664;BME280;1848;51.042;7.066;2022-09-13T02:09:20;99758.47;;;16.54;88.92
3664;BME280;1848;51.042;7.066;2022-09-13T02:11:55;99755.78;;;16.54;89.05
3664;BME280;1848;51.042;7.066;2022-09-13T02:14:37;99757.88;;;16.52;89.78
3664;BME280;1848;51.042;7.066;2022-09-13T02:17:14;99761.41;;;16.52;89.19
3664;BME280;1848;51.042;7.066;2022-09-13T02:19:50;99753.31;;;16.52;89.71
3664;BME280;1848;51.042;7.066;2022-09-13T02:22:21;99762.22;;;16.53;88.79
3664;BME280;1848;51.042;7.066;2022-09-13T02:24:53;99751.09;;;16.49;89.08
3664;BME280;1848;51.042;7.066;2022-09-13T02:27:24;99752.25;;;16.53;89.29
3664;BME280;1848;51.042;7.066;2022-09-13T02:29:56;99755.78;;;16.54;89.44
3664;BME280;1848;51.042;7.066;2022-09-13T02:32:35;99757.63;;;16.53;88.61
3664;BME280;1848;51.042;7.066;2022-09-13T02:35:07;99754.69;;;16.55;88.78
3664;BME280;1848;51.042;7.066;2022-09-13T02:37:38;99752.56;;;16.57;89.50
3664;BME280;1848;51.042;7.066;2022-09-13T02:40:09;99760.44;;;16.59;89.58
3664;BME280;1848;51.042;7.066;2022-09-13T02:42:46;99751.84;;;16.62;88.82
3664;BME280;1848;51.042;7.066;2022-09-13T02:45:16;99755.97;;;16.64;89.69
3664;BME280;1848;51.042;7.066;2022-09-13T02:47:52;99751.94;;;16.67;88.61
3664;BME280;1848;51.042;7.066;2022-09-13T02:50:31;99754.16;;;16.70;89.60
3664;BME280;1848;51.042;7.066;2022-09-13T02:56:19;99759.88;;;16.74;89.80
3664;BME280;1848;51.042;7.066;2022-09-13T02:58:49;99754.81;;;16.77;87.09
3664;BME280;1848;51.042;7.066;2022-09-13T03:01:18;99755.13;;;16.81;87.25
3664;BME280;1848;51.042;7.066;2022-09-13T03:03:46;99760.06;;;16.84;88.09
3664;BME280;1848;51.042;7.066;2022-09-13T03:06:21;99754.19;;;16.87;87.17
3664;BME280;1848;51.042;7.066;2022-09-13T03:08:47;99752.53;;;16.86;88.14
3664;BME280;1848;51.042;7.066;2022-09-13T03:11:24;99760.97;;;16.89;88.64
3664;BME280;1848;51.042;7.066;2022-09-13T03:14:14;99766.94;;;16.92;89.15
3664;BME280;1848;51.042;7.066;2022-09-13T03:17:03;99758.03;;;16.91;90.38
3664;BME280;1848;51.042;7.066;2022-09-13T03:22:24;99764.75;;;16.88;92.42
3664;BME280;1848;51.042;7.066;2022-09-13T03:27:59;99764.16;;;16.86;92.72
3664;BME280;1848;51.042;7.066;2022-09-13T03:30:28;99760.66;;;16.86;92.58
3664;BME280;1848;51.042;7.066;2022-09-13T03:33:03;99750.91;;;16.85;94.58
3664;BME280;1848;51.042;7.066;2022-09-13T03:35:38;99752.19;;;16.82;94.31
3664;BME280;1848;51.042;7.066;2022-09-13T03:38:09;99751.88;;;16.79;94.41
3664;BME280;1848;51.042;7.066;2022-09-13T03:41:08;99738.38;;;16.79;92.12
3664;BME280;1848;51.042;7.066;2022-09-13T03:43:48;99731.00;;;16.74;92.22
3664;BME280;1848;51.042;7.066;2022-09-13T03:48:45;99738.59;;;16.77;94.51
3664;BME280;1848;51.042;7.066;2022-09-13T03:51:13;99727.25;;;16.75;95.46
3664;BME280;1848;51.042;7.066;2022-09-13T03:53:44;99729.63;;;16.71;97.30
3664;BME280;1848;51.042;7.066;2022-09-13T03:56:17;99723.66;;;16.69;96.67
3664;BME280;1848;51.042;7.066;2022-09-13T03:58:48;99727.97;;;16.70;94.80
3664;BME280;1848;51.042;7.066;2022-09-13T04:01:20;99722.09;;;16.74;95.58
3664;BME280;1848;51.042;7.066;2022-09-13T04:03:48;99721.28;;;16.73;94.67
3664;BME280;1848;51.042;7.066;2022-09-13T04:06:19;99719.13;;;16.75;96.05
3664;BME280;1848;51.042;7.066;2022-09-13T04:08:46;99719.94;;;16.76;96.28
3664;BME280;1848;51.042;7.066;2022-09-13T04:11:12;99678.72;;;16.46;96.01
3664;BME280;1848;51.042;7.066;2022-09-13T04:13:38;99728.06;;;16.76;92.81
3664;BME280;1848;51.042;7.066;2022-09-13T04:16:05;99730.75;;;16.76;96.28
3664;BME280;1848;51.042;7.066;2022-09-13T04:18:32;99728.28;;;16.74;96.37
3664;BME280;1848;51.042;7.066;2022-09-13T04:21:00;99726.16;;;16.76;95.66
3664;BME280;1848;51.042;7.066;2022-09-13T04:23:28;99675.47;;;16.44;96.94
3664;BME280;1848;51.042;7.066;2022-09-13T04:26:00;99705.31;;;16.55;95.68
3664;BME280;1848;51.042;7.066;2022-09-13T04:28:27;99737.78;;;16.77;95.35
3664;BME280;1848;51.042;7.066;2022-09-13T04:30:53;99734.25;;;16.76;96.57
3664;BME280;1848;51.042;7.066;2022-09-13T04:33:20;99733.13;;;16.72;96.66
3664;BME280;1848;51.042;7.066;2022-09-13T04:35:46;99707.00;;;16.61;96.39
3664;BME280;1848;51.042;7.066;2022-09-13T04:38:12;99678.06;;;16.39;95.91
3664;BME280;1848;51.042;7.066;2022-09-13T04:40:39;99731.16;;;16.67;97.15
3664;BME280;1848;51.042;7.066;2022-09-13T04:43:05;99724.47;;;16.70;95.86
3664;BME280;1848;51.042;7.066;2022-09-13T04:45:32;99690.41;;;16.52;96.36
3664;BME280;1848;51.042;7.066;2022-09-13T04:47:58;99722.81;;;16.69;97.11
3664;BME280;1848;51.042;7.066;2022-09-13T04:50:25;99725.75;;;16.67;96.93
3664;BME280;1848;51.042;7.066;2022-09-13T04:52:53;99734.94;;;16.66;96.45
3664;BME280;1848;51.042;7.066;2022-09-13T04:55:20;99717.31;;;16.64;97.80
3664;BME280;1848;51.042;7.066;2022-09-13T04:57:51;99734.38;;;16.64;97.64
3664;BME280;1848;51.042;7.066;2022-09-13T05:00:18;99733.28;;;16.65;97.98
3664;BME280;1848;51.042;7.066;2022-09-13T05:02:44;99739.50;;;16.66;99.00
3664;BME280;1848;51.042;7.066;2022-09-13T05:05:11;99732.47;;;16.65;97.61
3664;BME280;1848;51.042;7.066;2022-09-13T05:07:37;99740.91;;;16.68;99.08
3664;BME280;1848;51.042;7.066;2022-09-13T05:10:04;99741.94;;;16.67;98.68
3664;BME280;1848;51.042;7.066;2022-09-13T05:12:31;99740.09;;;16.68;98.78
3664;BME280;1848;51.042;7.066;2022-09-13T05:14:57;99749.00;;;16.68;98.58
3664;BME280;1848;51.042;7.066;2022-09-13T05:17:23;99747.03;;;16.64;98.42
3664;BME280;1848;51.042;7.066;2022-09-13T05:19:50;99745.72;;;16.66;97.46
3664;BME280;1848;51.042;7.066;2022-09-13T05:22:16;99752.84;;;16.73;98.33
3664;BME280;1848;51.042;7.066;2022-09-13T05:24:43;99736.22;;;16.47;96.46
3664;BME280;1848;51.042;7.066;2022-09-13T05:27:09;99773.63;;;16.72;96.20
3664;BME280;1848;51.042;7.066;2022-09-13T05:29:36;99762.09;;;16.77;98.85
3664;BME280;1848;51.042;7.066;2022-09-13T05:32:03;99762.09;;;16.77;98.71
3664;BME280;1848;51.042;7.066;2022-09-13T05:34:29;99770.19;;;16.77;100.00
3664;BME280;1848;51.042;7.066;2022-09-13T05:36:55;99765.28;;;16.74;100.00
3664;BME280;1848;51.042;7.066;2022-09-13T05:39:22;99755.53;;;16.73;100.00
3664;BME280;1848;51.042;7.066;2022-09-13T05:42:04;99742.47;;;16.64;100.00
3664;BME280;1848;51.042;7.066;2022-09-13T05:44:31;99747.88;;;16.64;100.00
3664;BME280;1848;51.042;7.066;2022-09-13T05:46:57;99743.50;;;16.63;100.00
3664;BME280;1848;51.042;7.066;2022-09-13T05:49:24;99754.06;;;16.65;99.40
3664;BME280;1848;51.042;7.066;2022-09-13T05:51:50;99741.38;;;16.65;99.06
3664;BME280;1848;51.042;7.066;2022-09-13T05:54:16;99748.66;;;16.65;98.98
3664;BME280;1848;51.042;7.066;2022-09-13T05:56:43;99738.69;;;16.65;98.33
3664;BME280;1848;51.042;7.066;2022-09-13T05:59:11;99738.44;;;16.67;97.88
3664;BME280;1848;51.042;7.066;2022-09-13T06:01:39;99743.13;;;16.71;98.45
3664;BME280;1848;51.042;7.066;2022-09-13T06:04:05;99743.19;;;16.77;98.37
3664;BME280;1848;51.042;7.066;2022-09-13T06:06:33;99689.28;;;16.48;98.73
3664;BME280;1848;51.042;7.066;2022-09-13T06:09:00;99741.97;;;16.84;98.25
3664;BME280;1848;51.042;7.066;2022-09-13T06:11:27;99736.91;;;16.88;97.60
3664;BME280;1848;51.042;7.066;2022-09-13T06:13:53;99745.41;;;16.97;97.69
3664;BME280;1848;51.042;7.066;2022-09-13T06:16:20;99747.94;;;17.03;96.51
3664;BME280;1848;51.042;7.066;2022-09-13T06:18:47;99748.59;;;17.11;97.43
3664;BME280;1848;51.042;7.066;2022-09-13T06:21:17;99744.59;;;17.13;96.87
3664;BME280;1848;51.042;7.066;2022-09-13T06:23:51;99746.56;;;17.18;96.83
3664;BME280;1848;51.042;7.066;2022-09-13T06:26:21;99749.31;;;17.23;96.65
3664;BME280;1848;51.042;7.066;2022-09-13T06:28:49;99671.91;;;16.78;95.83
3664;BME280;1848;51.042;7.066;2022-09-13T06:31:18;99760.25;;;17.33;96.05
3664;BME280;1848;51.042;7.066;2022-09-13T06:33:44;99760.31;;;17.38;92.31
3664;BME280;1848;51.042;7.066;2022-09-13T06:36:14;99763.41;;;17.47;94.04
3664;BME280;1848;51.042;7.066;2022-09-13T06:38:40;99753.25;;;17.54;96.25
3664;BME280;1848;51.042;7.066;2022-09-13T06:41:09;99754.38;;;17.58;92.62
3664;BME280;1848;51.042;7.066;2022-09-13T06:43:37;99755.25;;;17.64;91.44
3664;BME280;1848;51.042;7.066;2022-09-13T06:46:11;99759.69;;;17.70;92.83
3664;BME280;1848;51.042;7.066;2022-09-13T06:48:41;99753.25;;;17.76;94.77
3664;BME280;1848;51.042;7.066;2022-09-13T06:51:11;99746.03;;;17.82;92.84
3664;BME280;1848;51.042;7.066;2022-09-13T06:53:38;99752.66;;;17.91;93.18
3664;BME280;1848;51.042;7.066;2022-09-13T06:56:09;99739.13;;;17.91;93.59
3664;BME280;1848;51.042;7.066;2022-09-13T06:58:36;99743.34;;;18.04;93.61
3664;BME280;1848;51.042;7.066;2022-09-13T07:01:16;99745.81;;;18.11;92.02
3664;BME280;1848;51.042;7.066;2022-09-13T07:03:48;99760.00;;;18.18;92.40
3664;BME280;1848;51.042;7.066;2022-09-13T07:06:23;99760.59;;;18.25;91.98
3664;BME280;1848;51.042;7.066;2022-09-13T07:08:51;99748.19;;;18.29;90.63
3664;BME280;1848;51.042;7.066;2022-09-13T07:11:19;99756.34;;;18.34;92.04
3664;BME280;1848;51.042;7.066;2022-09-13T07:13:57;99749.03;;;18.35;91.21
3664;BME280;1848;51.042;7.066;2022-09-13T07:16:29;99743.13;;;18.38;92.24
3664;BME280;1848;51.042;7.066;2022-09-13T07:19:00;99740.72;;;18.42;91.57
3664;BME280;1848;51.042;7.066;2022-09-13T07:21:28;99748.59;;;18.43;89.13
3664;BME280;1848;51.042;7.066;2022-09-13T07:23:55;99750.53;;;18.48;89.32
3664;BME280;1848;51.042;7.066;2022-09-13T07:26:21;99749.78;;;18.52;91.72
3664;BME280;1848;51.042;7.066;2022-09-13T07:28:51;99751.44;;;18.58;89.54
3664;BME280;1848;51.042;7.066;2022-09-13T07:31:20;99747.72;;;18.65;89.30
3664;BME280;1848;51.042;7.066;2022-09-13T07:33:53;99744.78;;;18.71;89.66
3664;BME280;1848;51.042;7.066;2022-09-13T07:36:20;99697.47;;;18.47;89.67
3664;BME280;1848;51.042;7.066;2022-09-13T07:38:46;99747.38;;;18.88;88.06
3664;BME280;1848;51.042;7.066;2022-09-13T07:41:15;99752.31;;;18.97;87.07
3664;BME280;1848;51.042;7.066;2022-09-13T07:43:42;99761.03;;;19.04;86.47
3664;BME280;1848;51.042;7.066;2022-09-13T07:46:11;99769.47;;;19.12;87.22
3664;BME280;1848;51.042;7.066;2022-09-13T07:48:40;99766.56;;;19.19;86.38
3664;BME280;1848;51.042;7.066;2022-09-13T07:53:36;99767.47;;;19.30;86.04
3664;BME280;1848;51.042;7.066;2022-09-13T07:56:09;99768.81;;;19.32;86.33
3664;BME280;1848;51.042;7.066;2022-09-13T07:58:37;99767.78;;;19.39;84.08
3664;BME280;1848;51.042;7.066;2022-09-13T08:01:15;99769.97;;;19.47;85.03
3664;BME280;1848;51.042;7.066;2022-09-13T08:03:43;99719.69;;;19.24;83.24
3664;BME280;1848;51.042;7.066;2022-09-13T08:06:10;99728.66;;;19.29;85.24
3664;BME280;1848;51.042;7.066;2022-09-13T08:08:36;99765.75;;;19.66;83.54
3664;BME280;1848;51.042;7.066;2022-09-13T08:11:05;99770.69;;;19.80;81.66
3664;BME280;1848;51.042;7.066;2022-09-13T08:13:32;99769.13;;;19.89;84.58
3664;BME280;1848;51.042;7.066;2022-09-13T08:16:03;99780.00;;;19.99;78.25
3664;BME280;1848;51.042;7.066;2022-09-13T08:18:30;99780.59;;;20.12;78.79
3664;BME280;1848;51.042;7.066;2022-09-13T08:20:58;99780.88;;;20.20;75.41
3664;BME280;1848;51.042;7.066;2022-09-13T08:23:25;99780.13;;;20.35;77.87
3664;BME280;1848;51.042;7.066;2022-09-13T08:25:52;99776.59;;;20.50;80.71
3664;BME280;1848;51.042;7.066;2022-09-13T08:28:20;99782.59;;;20.68;76.58
3664;BME280;1848;51.042;7.066;2022-09-13T08:30:52;99782.88;;;20.76;74.47
3664;BME280;1848;51.042;7.066;2022-09-13T08:33:19;99782.34;;;20.85;73.48
3664;BME280;1848;51.042;7.066;2022-09-13T08:35:50;99782.34;;;20.95;73.17
3664;BME280;1848;51.042;7.066;2022-09-13T08:38:18;99778.53;;;21.06;76.29
3664;BME280;1848;51.042;7.066;2022-09-13T08:40:51;99780.69;;;21.19;72.95
3664;BME280;1848;51.042;7.066;2022-09-13T08:46:03;99789.66;;;21.30;67.65
3664;BME280;1848;51.042;7.066;2022-09-13T08:48:35;99789.09;;;21.33;67.76
3664;BME280;1848;51.042;7.066;2022-09-13T08:51:05;99781.75;;;21.39;71.70
3664;BME280;1848;51.042;7.066;2022-09-13T08:53:46;99786.63;;;21.52;70.15
3664;BME280;1848;51.042;7.066;2022-09-13T08:56:26;99780.34;;;21.67;69.55
3664;BME280;1848;51.042;7.066;2022-09-13T09:01:53;99781.63;;;21.85;67.02
3664;BME280;1848;51.042;7.066;2022-09-13T09:04:38;99775.03;;;22.02;66.52
3664;BME280;1848;51.042;7.066;2022-09-13T09:09:39;99778.59;;;22.47;64.55
3664;BME280;1848;51.042;7.066;2022-09-13T09:12:16;99776.56;;;22.68;65.13
3664;BME280;1848;51.042;7.066;2022-09-13T09:15:07;99772.75;;;22.98;65.25
3664;BME280;1848;51.042;7.066;2022-09-13T09:17:59;99777.56;;;23.12;60.12
3664;BME280;1848;51.042;7.066;2022-09-13T09:20:57;99770.38;;;23.21;60.25
3664;BME280;1848;51.042;7.066;2022-09-13T09:31:43;99774.13;;;24.22;55.98
3664;BME280;1848;51.042;7.066;2022-09-13T09:37:20;99780.47;;;25.21;57.30
3664;BME280;1848;51.042;7.066;2022-09-13T09:39:48;99776.19;;;25.75;52.78
3664;BME280;1848;51.042;7.066;2022-09-13T09:42:17;99775.16;;;25.99;53.14
3664;BME280;1848;51.042;7.066;2022-09-13T09:44:56;99769.38;;;25.73;53.10
3664;BME280;1848;51.042;7.066;2022-09-13T09:47:27;99774.97;;;25.54;52.64
3664;BME280;1848;51.042;7.066;2022-09-13T09:50:01;99774.16;;;25.81;54.94
3664;BME280;1848;51.042;7.066;2022-09-13T09:52:58;99772.25;;;26.32;52.62
3664;BME280;1848;51.042;7.066;2022-09-13T09:55:32;99773.63;;;26.79;52.79
3664;BME280;1848;51.042;7.066;2022-09-13T09:58:02;99777.97;;;27.03;51.59
3664;BME280;1848;51.042;7.066;2022-09-13T10:00:34;99776.16;;;26.98;50.25
3664;BME280;1848;51.042;7.066;2022-09-13T10:03:06;99776.19;;;27.07;51.52
3664;BME280;1848;51.042;7.066;2022-09-13T10:05:34;99788.69;;;27.45;50.11
3664;BME280;1848;51.042;7.066;2022-09-13T10:08:04;99779.72;;;27.62;49.19
3664;BME280;1848;51.042;7.066;2022-09-13T10:13:01;99769.94;;;27.96;47.86
3664;BME280;1848;51.042;7.066;2022-09-13T10:15:30;99776.31;;;28.57;47.25
3664;BME280;1848;51.042;7.066;2022-09-13T10:18:16;99752.53;;;28.44;47.21
3664;BME280;1848;51.042;7.066;2022-09-13T10:21:24;99772.06;;;28.95;45.75
3664;BME280;1848;51.042;7.066;2022-09-13T10:24:15;99769.13;;;29.09;45.08
3664;BME280;1848;51.042;7.066;2022-09-13T10:26:42;99778.47;;;29.25;44.20
3664;BME280;1848;51.042;7.066;2022-09-13T10:29:14;99777.56;;;29.51;43.70
3664;BME280;1848;51.042;7.066;2022-09-13T10:31:43;99773.72;;;29.43;42.43
3664;BME280;1848;51.042;7.066;2022-09-13T10:34:19;99775.44;;;29.56;42.97
3664;BME280;1848;51.042;7.066;2022-09-13T10:36:59;99775.47;;;29.86;42.54
3664;BME280;1848;51.042;7.066;2022-09-13T10:39:29;99765.25;;;30.08;40.50
3664;BME280;1848;51.042;7.066;2022-09-13T10:42:00;99771.13;;;30.27;43.88
3664;BME280;1848;51.042;7.066;2022-09-13T10:44:44;99766.03;;;30.59;43.74
3664;BME280;1848;51.042;7.066;2022-09-13T10:47:22;99761.34;;;31.05;42.82
3664;BME280;1848;51.042;7.066;2022-09-13T10:49:54;99757.38;;;31.27;40.72
3664;BME280;1848;51.042;7.066;2022-09-13T10:52:32;99759.41;;;31.18;40.75
3664;BME280;1848;51.042;7.066;2022-09-13T10:57:54;99754.72;;;30.52;40.92
3664;BME280;1848;51.042;7.066;2022-09-13T11:00:59;99751.06;;;30.18;43.51
3664;BME280;1848;51.042;7.066;2022-09-13T11:03:41;99753.75;;;29.85;42.04
3664;BME280;1848;51.042;7.066;2022-09-13T11:11:59;99746.31;;;29.17;44.34
3664;BME280;1848;51.042;7.066;2022-09-13T11:35:24;99724.09;;;27.56;45.15
3664;BME280;1848;51.042;7.066;2022-09-13T11:38:11;99736.13;;;27.78;46.94
3664;BME280;1848;51.042;7.066;2022-09-13T11:55:20;99699.16;;;28.45;44.35
3664;BME280;1848;51.042;7.066;2022-09-13T11:57:52;99707.88;;;28.47;44.72
3664;BME280;1848;51.042;7.066;2022-09-13T12:03:01;99701.91;;;28.36;43.21
3664;BME280;1848;51.042;7.066;2022-09-13T12:05:38;99707.41;;;28.62;43.70
3664;BME280;1848;51.042;7.066;2022-09-13T12:10:49;99704.78;;;29.31;41.75
3664;BME280;1848;51.042;7.066;2022-09-13T12:13:26;99714.47;;;29.67;41.20
3664;BME280;1848;51.042;7.066;2022-09-13T12:15:58;99700.94;;;29.53;40.81
3664;BME280;1848;51.042;7.066;2022-09-13T12:18:29;99706.75;;;29.21;41.84
3664;BME280;1848;51.042;7.066;2022-09-13T12:21:06;99694.22;;;29.33;41.13
3664;BME280;1848;51.042;7.066;2022-09-13T12:23:40;99661.81;;;29.00;41.85
3664;BME280;1848;51.042;7.066;2022-09-13T12:26:20;99689.09;;;29.23;40.27
3664;BME280;1848;51.042;7.066;2022-09-13T12:28:56;99687.66;;;29.16;40.17
3664;BME280;1848;51.042;7.066;2022-09-13T12:31:29;99648.81;;;28.71;44.56
3664;BME280;1848;51.042;7.066;2022-09-13T12:33:57;99680.69;;;29.19;42.39
3664;BME280;1848;51.042;7.066;2022-09-13T12:39:32;99666.66;;;29.42;41.31
3664;BME280;1848;51.042;7.066;2022-09-13T12:42:29;99676.91;;;29.32;40.88
3664;BME280;1848;51.042;7.066;2022-09-13T12:48:00;99673.53;;;28.79;42.83
3664;BME280;1848;51.042;7.066;2022-09-13T12:59:19;99655.69;;;28.12;43.49
3664;BME280;1848;51.042;7.066;2022-09-13T13:01:50;99670.38;;;28.16;43.30
3664;BME280;1848;51.042;7.066;2022-09-13T13:04:22;99661.31;;;28.33;44.71
3664;BME280;1848;51.042;7.066;2022-09-13T13:06:59;99662.59;;;28.53;42.93
3664;BME280;1848;51.042;7.066;2022-09-13T13:11:59;99664.38;;;28.58;43.55
3664;BME280;1848;51.042;7.066;2022-09-13T13:14:43;99623.09;;;28.49;42.59
3664;BME280;1848;51.042;7.066;2022-09-13T13:25:54;99651.69;;;28.83;42.36
3664;BME280;1848;51.042;7.066;2022-09-13T13:41:54;99636.44;;;27.86;43.73
3664;BME280;1848;51.042;7.066;2022-09-13T13:46:49;99627.38;;;27.85;45.57
3664;BME280;1848;51.042;7.066;2022-09-13T13:57:49;99630.88;;;27.42;45.70
3664;BME280;1848;51.042;7.066;2022-09-13T14:00:19;99635.19;;;27.26;45.04
3664;BME280;1848;51.042;7.066;2022-09-13T14:16:53;99621.53;;;26.94;47.09
3664;BME280;1848;51.042;7.066;2022-09-13T14:19:26;99619.47;;;27.09;47.62
3664;BME280;1848;51.042;7.066;2022-09-13T14:22:26;99615.78;;;27.13;47.38
3664;BME280;1848;51.042;7.066;2022-09-13T14:24:58;99613.34;;;27.12;46.44
3664;BME280;1848;51.042;7.066;2022-09-13T14:27:39;99610.63;;;27.12;48.30
3664;BME280;1848;51.042;7.066;2022-09-13T14:30:19;99616.06;;;27.03;46.95
3664;BME280;1848;51.042;7.066;2022-09-13T14:32:50;99614.41;;;26.85;47.51
3664;BME280;1848;51.042;7.066;2022-09-13T14:35:25;99606.78;;;26.82;46.96
3664;BME280;1848;51.042;7.066;2022-09-13T14:37:51;99612.31;;;26.90;47.48
3664;BME280;1848;51.042;7.066;2022-09-13T14:42:49;99614.44;;;27.02;47.65
3664;BME280;1848;51.042;7.066;2022-09-13T14:48:09;99604.91;;;26.91;47.08
3664;BME280;1848;51.042;7.066;2022-09-13T14:50:47;99606.66;;;26.87;48.40
3664;BME280;1848;51.042;7.066;2022-09-13T14:53:20;99561.72;;;26.65;49.40
3664;BME280;1848;51.042;7.066;2022-09-13T14:55:51;99602.78;;;26.88;47.94
3664;BME280;1848;51.042;7.066;2022-09-13T14:58:38;99596.31;;;26.84;48.43
3664;BME280;1848;51.042;7.066;2022-09-13T15:01:09;99597.09;;;26.75;49.34
3664;BME280;1848;51.042;7.066;2022-09-13T15:03:44;99604.22;;;26.85;50.09
3664;BME280;1848;51.042;7.066;2022-09-13T15:06:23;99605.06;;;26.94;50.57
3664;BME280;1848;51.042;7.066;2022-09-13T15:08:51;99598.13;;;26.97;49.92
3664;BME280;1848;51.042;7.066;2022-09-13T15:11:36;99596.03;;;26.94;49.31
3664;BME280;1848;51.042;7.066;2022-09-13T15:14:20;99596.69;;;26.91;48.00
3664;BME280;1848;51.042;7.066;2022-09-13T15:16:52;99606.50;;;26.92;49.14
3664;BME280;1848;51.042;7.066;2022-09-13T15:21:49;99600.16;;;26.74;48.73
3664;BME280;1848;51.042;7.066;2022-09-13T15:24:27;99604.03;;;26.50;48.92
3664;BME280;1848;51.042;7.066;2022-09-13T15:27:05;99584.28;;;26.31;50.20
3664;BME280;1848;51.042;7.066;2022-09-13T15:29:33;99584.31;;;26.08;50.52
3664;BME280;1848;51.042;7.066;2022-09-13T15:32:03;99601.38;;;25.91;50.57
3664;BME280;1848;51.042;7.066;2022-09-13T15:34:31;99592.31;;;25.82;51.03
3664;BME280;1848;51.042;7.066;2022-09-13T15:37:11;99587.13;;;25.80;51.19
3664;BME280;1848;51.042;7.066;2022-09-13T15:39:46;99559.53;;;25.54;54.94
3664;BME280;1848;51.042;7.066;2022-09-13T15:42:15;99595.28;;;25.72;51.68
3664;BME280;1848;51.042;7.066;2022-09-13T15:44:41;99555.91;;;25.45;51.90
3664;BME280;1848;51.042;7.066;2022-09-13T15:47:14;99598.00;;;25.72;53.72
3664;BME280;1848;51.042;7.066;2022-09-13T15:49:47;99600.41;;;25.73;52.70
3664;BME280;1848;51.042;7.066;2022-09-13T15:52:15;99601.06;;;25.70;53.33
3664;BME280;1848;51.042;7.066;2022-09-13T15:54:46;99569.34;;;25.55;53.79
3664;BME280;1848;51.042;7.066;2022-09-13T15:57:22;99597.50;;;25.70;54.35
3664;BME280;1848;51.042;7.066;2022-09-13T15:59:49;99617.78;;;25.68;55.60
3664;BME280;1848;51.042;7.066;2022-09-13T16:02:22;99591.63;;;25.62;53.48
3664;BME280;1848;51.042;7.066;2022-09-13T16:04:49;99601.28;;;25.60;58.60
3664;BME280;1848;51.042;7.066;2022-09-13T16:07:16;99575.25;;;25.48;56.16
3664;BME280;1848;51.042;7.066;2022-09-13T16:09:43;99587.00;;;25.49;53.99
3664;BME280;1848;51.042;7.066;2022-09-13T16:12:10;99586.13;;;25.40;53.68
3664;BME280;1848;51.042;7.066;2022-09-13T16:14:36;99589.97;;;25.39;57.34
3664;BME280;1848;51.042;7.066;2022-09-13T16:17:06;99587.38;;;25.34;57.79
3664;BME280;1848;51.042;7.066;2022-09-13T16:19:32;99588.09;;;25.25;62.07
3664;BME280;1848;51.042;7.066;2022-09-13T16:21:59;99601.25;;;25.23;56.76
3664;BME280;1848;51.042;7.066;2022-09-13T16:24:25;99597.38;;;25.10;55.52
3664;BME280;1848;51.042;7.066;2022-09-13T16:26:52;99606.50;;;25.06;56.62
3664;BME280;1848;51.042;7.066;2022-09-13T16:29:19;99599.22;;;25.01;57.86
3664;BME280;1848;51.042;7.066;2022-09-13T16:31:45;99559.72;;;24.80;58.05
3664;BME280;1848;51.042;7.066;2022-09-13T16:34:12;99597.41;;;24.97;57.38
3664;BME280;1848;51.042;7.066;2022-09-13T16:36:38;99589.00;;;24.93;57.20
3664;BME280;1848;51.042;7.066;2022-09-13T16:39:04;99597.28;;;24.88;57.48
3664;BME280;1848;51.042;7.066;2022-09-13T16:41:31;99588.09;;;24.84;60.06
3664;BME280;1848;51.042;7.066;2022-09-13T16:43:57;99581.88;;;24.78;60.01
3664;BME280;1848;51.042;7.066;2022-09-13T16:46:24;99586.16;;;24.70;60.53
3664;BME280;1848;51.042;7.066;2022-09-13T16:48:52;99581.88;;;24.64;60.80
3664;BME280;1848;51.042;7.066;2022-09-13T16:51:20;99579.88;;;24.56;60.83
3664;BME280;1848;51.042;7.066;2022-09-13T16:53:48;99585.06;;;24.52;60.71